createdAt,value
2017-10-19T00:00:09.390Z,95477.26
2017-10-19T00:02:41.712Z,95473.23
2017-10-19T00:05:38.406Z,95473.34
2017-10-19T00:08:15.891Z,95474.45
2017-10-19T00:10:45.905Z,95474.67
2017-10-19T00:13:15.881Z,95472.14
2017-10-19T00:15:44.978Z,95477.48
2017-10-19T00:18:15.977Z,95479.61
2017-10-19T00:20:45.043Z,95478.78
2017-10-19T00:23:18.817Z,95480.99
2017-10-19T00:25:47.856Z,95484.00
2017-10-19T00:28:18.847Z,95484.50
2017-10-19T00:30:48.926Z,95482.84
2017-10-19T00:33:18.943Z,95486.59
2017-10-19T00:35:47.991Z,95489.77
2017-10-19T00:38:17.115Z,95488.58
2017-10-19T00:40:47.056Z,95484.45
2017-10-19T00:43:32.807Z,95487.47
2017-10-19T00:46:03.777Z,95486.77
2017-10-19T00:48:32.910Z,95486.56
2017-10-19T00:51:30.112Z,95490.37
2017-10-19T00:53:59.163Z,95486.31
2017-10-19T00:56:40.759Z,95488.25
2017-10-19T00:59:11.749Z,95483.02
2017-10-19T01:01:44.101Z,95481.17
2017-10-19T01:04:25.926Z,95479.88
2017-10-19T01:06:54.967Z,95478.45
2017-10-19T01:09:38.881Z,95475.88
2017-10-19T01:12:12.170Z,95475.41
2017-10-19T01:14:42.197Z,95477.11
2017-10-19T01:17:28.935Z,95473.61
2017-10-19T01:19:57.976Z,95470.84
2017-10-19T01:22:40.208Z,95468.52
2017-10-19T01:25:24.295Z,95474.56
2017-10-19T01:27:53.353Z,95476.13
2017-10-19T01:30:23.287Z,95476.99
2017-10-19T01:32:53.255Z,95468.88
2017-10-19T01:35:30.418Z,95471.03
2017-10-19T01:37:59.471Z,95469.03
2017-10-19T01:40:41.468Z,95466.44
2017-10-19T01:43:23.399Z,95467.74
2017-10-19T01:45:52.483Z,95461.49
2017-10-19T01:48:40.305Z,95463.44
2017-10-19T01:51:13.732Z,95464.69
2017-10-19T01:53:43.835Z,95462.27
2017-10-19T01:56:16.036Z,95462.09
2017-10-19T01:58:45.083Z,95455.02
2017-10-19T02:01:21.451Z,95454.73
2017-10-19T02:03:51.493Z,95452.04
2017-10-19T02:06:20.548Z,95453.35
2017-10-19T02:08:50.369Z,95455.29
2017-10-19T02:11:19.416Z,95450.63
2017-10-19T02:13:48.558Z,95455.03
2017-10-19T02:16:20.653Z,95455.44
2017-10-19T02:18:49.703Z,95452.55
2017-10-19T02:21:19.693Z,95445.89
2017-10-19T02:23:48.738Z,95443.45
2017-10-19T02:26:17.834Z,95444.14
2017-10-19T02:28:46.910Z,95438.54
2017-10-19T02:31:23.776Z,95442.13
2017-10-19T02:33:52.819Z,95440.36
2017-10-19T02:36:39.499Z,95441.56
2017-10-19T02:39:08.540Z,95440.98
2017-10-19T02:41:40.790Z,95443.55
2017-10-19T02:44:09.840Z,95443.09
2017-10-19T02:46:39.802Z,95448.16
2017-10-19T02:49:12.086Z,95449.77
2017-10-19T02:51:41.172Z,95443.42
2017-10-19T02:54:10.247Z,95443.12
2017-10-19T02:56:40.201Z,95439.23
2017-10-19T02:59:24.673Z,95437.91
2017-10-19T03:01:53.739Z,95440.48
2017-10-19T03:04:35.971Z,95441.02
2017-10-19T03:07:14.380Z,95441.94
2017-10-19T03:09:43.455Z,95440.04
2017-10-19T03:12:20.622Z,95443.08
2017-10-19T03:14:51.291Z,95442.28
2017-10-19T03:17:39.642Z,95442.30
2017-10-19T03:20:10.556Z,95441.07
2017-10-19T03:22:40.569Z,95438.72
2017-10-19T03:25:23.956Z,95444.80
2017-10-19T03:27:53.119Z,95444.36
2017-10-19T03:30:26.492Z,95447.28
2017-10-19T03:32:55.543Z,95443.75
2017-10-19T03:35:24.600Z,95443.72
2017-10-19T03:37:53.653Z,95440.91
2017-10-19T03:40:27.299Z,95438.84
2017-10-19T03:42:56.326Z,95440.45
2017-10-19T03:45:40.166Z,95434.46
2017-10-19T03:48:11.155Z,95437.33
2017-10-19T03:50:40.214Z,95432.59
2017-10-19T03:53:40.055Z,95436.53
2017-10-19T03:56:09.120Z,95429.27
2017-10-19T03:58:41.751Z,95428.96
2017-10-19T04:01:11.041Z,95430.22
2017-10-19T04:03:41.132Z,95425.08
2017-10-19T04:06:14.014Z,95421.94
2017-10-19T04:08:43.108Z,95421.08
2017-10-19T04:11:15.851Z,95424.83
2017-10-19T04:13:57.626Z,95418.20
2017-10-19T04:16:40.457Z,95414.36
2017-10-19T04:19:17.731Z,95420.02
2017-10-19T04:21:46.780Z,95425.02
2017-10-19T04:24:26.628Z,95426.63
2017-10-19T04:26:55.668Z,95417.73
2017-10-19T04:29:41.654Z,95415.16
2017-10-19T04:32:36.897Z,95418.62
2017-10-19T04:35:16.400Z,95422.88
2017-10-19T04:37:45.444Z,95423.59
2017-10-19T04:40:15.529Z,95415.98
2017-10-19T04:42:44.611Z,95414.73
2017-10-19T04:45:13.661Z,95414.34
2017-10-19T04:47:42.704Z,95416.72
2017-10-19T04:50:11.766Z,95411.77
2017-10-19T04:52:40.826Z,95408.38
2017-10-19T04:55:26.791Z,95409.73
2017-10-19T04:57:55.852Z,95409.23
2017-10-19T05:00:24.917Z,95408.50
2017-10-19T05:02:53.963Z,95413.44
2017-10-19T05:05:27.172Z,95416.30
2017-10-19T05:07:56.208Z,95412.56
2017-10-19T05:10:26.184Z,95415.35
2017-10-19T05:12:56.152Z,95412.27
2017-10-19T05:15:26.234Z,95406.59
2017-10-19T05:17:55.293Z,95402.45
2017-10-19T05:20:36.524Z,95404.92
2017-10-19T05:23:06.471Z,95405.09
2017-10-19T05:25:39.776Z,95403.38
2017-10-19T05:28:15.802Z,95397.39
2017-10-19T05:30:44.874Z,95399.20
2017-10-19T05:33:13.959Z,95398.48
2017-10-19T05:35:43.941Z,95398.67
2017-10-19T05:38:13.966Z,95398.80
2017-10-19T05:40:43.050Z,95404.37
2017-10-19T05:43:25.634Z,95411.11
2017-10-19T05:45:55.637Z,95410.61
2017-10-19T05:48:33.045Z,95419.96
2017-10-19T05:51:15.795Z,95420.50
2017-10-19T05:53:45.746Z,95424.48
2017-10-19T05:56:16.725Z,95422.66
2017-10-19T05:58:45.799Z,95427.70
2017-10-19T06:01:15.829Z,95431.70
2017-10-19T06:03:44.932Z,95433.52
2017-10-19T06:06:39.200Z,95436.39
2017-10-19T06:09:17.082Z,95444.47
2017-10-19T06:11:46.133Z,95443.23
2017-10-19T06:14:19.775Z,95443.52
2017-10-19T06:16:48.830Z,95445.16
2017-10-19T06:19:21.775Z,95450.22
2017-10-19T06:21:57.118Z,95451.29
2017-10-19T06:24:26.206Z,95454.56
2017-10-19T06:27:15.006Z,95454.30
2017-10-19T06:30:05.093Z,95455.69
2017-10-19T06:32:34.161Z,95450.99
2017-10-19T06:35:14.860Z,95449.77
2017-10-19T06:37:47.794Z,95445.59
2017-10-19T06:40:16.884Z,95445.95
2017-10-19T06:42:50.887Z,95448.30
2017-10-19T06:45:20.902Z,95452.07
2017-10-19T06:47:49.949Z,95452.77
2017-10-19T06:50:19.007Z,95455.77
2017-10-19T06:52:51.022Z,95462.45
2017-10-19T06:55:20.068Z,95465.26
2017-10-19T06:57:53.324Z,95465.92
2017-10-19T07:00:26.404Z,95463.12
2017-10-19T07:02:55.482Z,95460.44
2017-10-19T07:05:24.562Z,95463.94
2017-10-19T07:07:53.819Z,95465.53
2017-10-19T07:10:26.685Z,95463.50
2017-10-19T07:12:55.760Z,95468.63
2017-10-19T07:15:33.640Z,95463.36
2017-10-19T07:18:09.706Z,95469.25
2017-10-19T07:20:38.763Z,95468.44
2017-10-19T07:23:17.677Z,95469.62
2017-10-19T07:25:57.085Z,95464.52
2017-10-19T07:28:26.112Z,95458.44
2017-10-19T07:31:11.819Z,95459.08
2017-10-19T07:33:40.896Z,95457.59
2017-10-19T07:36:23.732Z,95457.95
2017-10-19T07:39:02.399Z,95461.58
2017-10-19T07:41:31.570Z,95461.42
2017-10-19T07:44:02.506Z,95465.55
2017-10-19T07:46:31.797Z,95468.44
2017-10-19T07:49:02.749Z,95465.67
2017-10-19T07:51:31.815Z,95464.33
2017-10-19T07:54:02.870Z,95461.47
2017-10-19T07:56:35.579Z,95461.61
2017-10-19T07:59:16.958Z,95465.14
2017-10-19T08:01:58.825Z,95471.66
2017-10-19T08:04:27.898Z,95469.98
2017-10-19T08:06:57.012Z,95468.79
2017-10-19T08:09:26.066Z,95466.04
2017-10-19T08:11:57.035Z,95467.79
2017-10-19T08:14:26.088Z,95466.72
2017-10-19T08:17:03.665Z,95469.28
2017-10-19T08:19:34.306Z,95464.90
2017-10-19T08:22:22.327Z,95462.78
2017-10-19T08:24:59.709Z,95458.74
2017-10-19T08:27:29.727Z,95459.51
2017-10-19T08:30:01.710Z,95462.12
2017-10-19T08:32:30.766Z,95457.64
2017-10-19T08:34:59.836Z,95455.20
2017-10-19T08:37:28.882Z,95458.52
2017-10-19T08:40:22.223Z,95454.49
2017-10-19T08:42:55.486Z,95454.33
2017-10-19T08:45:24.524Z,95452.56
2017-10-19T08:47:57.222Z,95450.60
2017-10-19T08:50:26.284Z,95452.05
2017-10-19T08:52:59.798Z,95451.00
2017-10-19T08:55:28.851Z,95440.95
2017-10-19T08:58:01.621Z,95442.30
2017-10-19T09:00:30.704Z,95429.38
2017-10-19T09:03:04.203Z,95430.45
2017-10-19T09:05:34.084Z,95437.19
2017-10-19T09:08:06.791Z,95434.38
2017-10-19T09:10:36.389Z,95437.31
2017-10-19T09:13:05.464Z,95441.90
2017-10-19T09:15:35.858Z,95446.55
2017-10-19T09:18:13.120Z,95445.69
2017-10-19T09:21:03.052Z,95441.41
2017-10-19T09:23:32.104Z,95438.91
2017-10-19T09:26:04.951Z,95443.52
2017-10-19T09:28:34.029Z,95449.66
2017-10-19T09:31:05.641Z,95455.63
2017-10-19T09:33:35.694Z,95459.69
2017-10-19T09:36:09.877Z,95451.28
2017-10-19T09:38:38.931Z,95450.48
2017-10-19T09:41:22.444Z,95451.94
2017-10-19T09:43:59.705Z,95449.23
2017-10-19T09:46:28.747Z,95446.93
2017-10-19T09:48:59.760Z,95443.31
2017-10-19T09:51:28.845Z,95438.46
2017-10-19T09:54:11.188Z,95435.12
2017-10-19T09:56:40.263Z,95432.43
2017-10-19T09:59:21.428Z,95439.20
2017-10-19T10:02:21.124Z,95439.20
2017-10-19T10:05:06.706Z,95442.09
2017-10-19T10:07:35.750Z,95436.67
2017-10-19T10:10:21.835Z,95433.67
2017-10-19T10:13:00.376Z,95434.52
2017-10-19T10:15:29.825Z,95434.91
2017-10-19T10:17:59.771Z,95435.87
2017-10-19T10:27:09.000Z,95424.27
2017-10-19T10:29:38.051Z,95419.39
2017-10-19T10:32:19.818Z,95417.67
2017-10-19T10:34:48.926Z,95416.30
2017-10-19T10:37:17.967Z,95408.45
2017-10-19T10:39:47.038Z,95412.44
2017-10-19T10:42:16.205Z,95410.06
2017-10-19T10:44:46.232Z,95406.38
2017-10-19T10:47:15.281Z,95402.72
2017-10-19T10:49:44.326Z,95397.60
2017-10-19T10:52:13.371Z,95393.30
2017-10-19T10:54:42.436Z,95391.27
2017-10-19T10:57:11.499Z,95398.20
2017-10-19T10:59:40.540Z,95397.69
2017-10-19T11:02:10.543Z,95395.92
2017-10-19T11:04:40.051Z,95391.80
2017-10-19T11:07:09.591Z,95392.08
2017-10-19T11:09:38.647Z,95383.64
2017-10-19T11:12:07.694Z,95376.17
2017-10-19T11:14:36.802Z,95370.84
2017-10-19T11:17:05.860Z,95368.33
2017-10-19T11:19:34.911Z,95372.23
2017-10-19T11:22:03.956Z,95370.08
2017-10-19T11:24:33.039Z,95372.44
2017-10-19T11:27:02.071Z,95373.09
2017-10-19T11:29:31.115Z,95375.21
2017-10-19T11:32:00.180Z,95372.30
2017-10-19T11:34:29.234Z,95374.14
2017-10-19T11:36:58.283Z,95373.78
2017-10-19T11:39:27.331Z,95368.34
2017-10-19T11:41:56.440Z,95370.92
2017-10-19T11:44:25.495Z,95363.75
2017-10-19T11:46:54.545Z,95366.69
2017-10-19T11:49:23.601Z,95364.41
2017-10-19T11:51:52.656Z,95362.31
2017-10-19T11:54:21.707Z,95369.78
2017-10-19T11:56:50.791Z,95357.72
2017-10-19T11:59:19.821Z,95356.18
2017-10-19T12:01:48.875Z,95357.03
2017-10-19T12:04:17.945Z,95348.55
2017-10-19T12:06:46.991Z,95346.87
2017-10-19T12:09:16.038Z,95343.56
2017-10-19T12:11:46.049Z,95343.47
2017-10-19T12:14:15.122Z,95340.88
2017-10-19T12:16:44.166Z,95341.75
2017-10-19T12:19:13.211Z,95331.98
2017-10-19T12:21:42.259Z,95328.56
2017-10-19T12:24:11.449Z,95326.77
2017-10-19T12:26:40.493Z,95322.86
2017-10-19T12:29:10.055Z,95317.50
2017-10-19T12:31:39.114Z,95315.91
2017-10-19T12:34:08.987Z,95310.55
2017-10-19T12:36:39.053Z,95307.25
2017-10-19T12:39:08.112Z,95306.21
2017-10-19T12:41:37.156Z,95298.36
2017-10-19T12:44:06.507Z,95296.36
2017-10-19T12:46:35.644Z,95295.77
2017-10-19T12:49:06.348Z,95292.65
2017-10-19T12:51:35.680Z,95294.86
2017-10-19T12:54:04.752Z,95293.21
2017-10-19T12:56:33.788Z,95290.51
2017-10-19T12:59:03.797Z,95295.54
2017-10-19T13:01:32.834Z,95296.95
2017-10-19T13:04:01.879Z,95293.98
2017-10-19T13:06:30.930Z,95295.17
2017-10-19T13:08:59.977Z,95290.70
2017-10-19T13:11:29.151Z,95291.59
2017-10-19T13:13:58.179Z,95292.36
2017-10-19T13:16:26.544Z,95293.18
2017-10-19T13:18:54.898Z,95295.44
2017-10-19T13:21:23.259Z,95295.05
2017-10-19T13:23:52.307Z,95296.33
2017-10-19T13:26:21.371Z,95290.48
2017-10-19T13:28:51.423Z,95290.81
2017-10-19T13:31:27.075Z,95293.34
2017-10-19T13:33:56.146Z,95295.28
2017-10-19T13:36:25.187Z,95294.95
2017-10-19T13:38:54.287Z,95289.70
2017-10-19T13:41:23.329Z,95285.98
2017-10-19T13:43:52.384Z,95288.00
2017-10-19T13:46:25.573Z,95284.11
2017-10-19T13:48:54.967Z,95282.87
2017-10-19T13:51:24.435Z,95288.03
2017-10-19T13:53:53.483Z,95280.39
2017-10-19T13:56:22.522Z,95283.34
2017-10-19T13:58:51.571Z,95281.41
2017-10-19T14:01:20.622Z,95275.25
2017-10-19T14:03:51.616Z,95275.59
2017-10-19T14:06:20.660Z,95277.28
2017-10-19T14:08:49.715Z,95272.73
2017-10-19T14:11:18.762Z,95267.41
2017-10-19T14:13:50.083Z,95263.19
2017-10-19T14:16:19.157Z,95261.14
2017-10-19T14:18:48.206Z,95254.26
2017-10-19T14:21:17.275Z,95250.45
2017-10-19T14:23:46.824Z,95248.67
2017-10-19T14:26:16.017Z,95250.82
2017-10-19T14:28:45.187Z,95249.25
2017-10-19T14:31:14.314Z,95252.31
2017-10-19T14:33:43.412Z,95250.91
2017-10-19T14:36:12.467Z,95256.52
2017-10-19T14:38:42.514Z,95257.06
2017-10-19T14:41:11.786Z,95258.50
2017-10-19T14:43:40.814Z,95254.68
2017-10-19T14:46:10.704Z,95250.35
2017-10-19T14:48:40.728Z,95249.60
2017-10-19T14:51:10.338Z,95248.19
2017-10-19T14:53:39.541Z,95250.91
2017-10-19T14:56:15.215Z,95246.25
2017-10-19T14:58:44.734Z,95243.23
2017-10-19T15:01:13.800Z,95241.52
2017-10-19T15:03:42.860Z,95240.44
2017-10-19T15:06:11.911Z,95241.98
2017-10-19T15:08:40.942Z,95248.20
2017-10-19T15:11:11.070Z,95246.31
2017-10-19T15:13:40.135Z,95245.13
2017-10-19T15:16:09.995Z,95247.96
2017-10-19T15:18:39.229Z,95245.06
2017-10-19T15:21:08.973Z,95247.66
2017-10-19T15:23:38.013Z,95247.56
2017-10-19T15:26:07.278Z,95250.66
2017-10-19T15:28:36.343Z,95249.56
2017-10-19T15:31:05.412Z,95247.95
2017-10-19T15:33:34.439Z,95242.84
2017-10-19T15:36:03.496Z,95251.14
2017-10-19T15:38:32.548Z,95247.33
2017-10-19T15:41:01.603Z,95248.45
2017-10-19T15:43:30.665Z,95249.62
2017-10-19T15:45:59.711Z,95248.56
2017-10-19T15:48:28.768Z,95257.11
2017-10-19T15:51:14.737Z,95258.33
2017-10-19T15:53:43.791Z,95254.92
2017-10-19T15:56:12.926Z,95261.59
2017-10-19T15:58:41.967Z,95264.12
2017-10-19T16:01:11.033Z,95266.32
2017-10-19T16:03:40.079Z,95272.78
2017-10-19T16:06:09.123Z,95271.17
2017-10-19T16:08:38.180Z,95273.19
2017-10-19T16:11:07.258Z,95268.44
2017-10-19T16:13:36.294Z,95268.67
2017-10-19T16:16:05.355Z,95270.23
2017-10-19T16:18:34.384Z,95274.03
2017-10-19T16:21:03.451Z,95272.58
2017-10-19T16:23:32.512Z,95276.63
2017-10-19T16:26:01.599Z,95273.50
2017-10-19T16:28:30.646Z,95275.21
2017-10-19T16:30:59.698Z,95273.94
2017-10-19T16:33:28.738Z,95274.73
2017-10-19T16:35:57.784Z,95279.95
2017-10-19T16:38:26.899Z,95278.83
2017-10-19T16:40:56.051Z,95281.53
2017-10-19T16:43:25.092Z,95280.86
2017-10-19T16:45:54.207Z,95291.83
2017-10-19T16:48:24.253Z,95285.68
2017-10-19T16:50:53.298Z,95277.71
2017-10-19T16:53:22.362Z,95280.46
2017-10-19T16:55:51.415Z,95280.22
2017-10-19T16:58:20.464Z,95288.00
2017-10-19T17:00:53.970Z,95289.95
2017-10-19T17:03:23.012Z,95293.27
2017-10-19T17:05:52.111Z,95296.97
2017-10-19T17:08:21.168Z,95296.55
2017-10-19T17:10:50.210Z,95298.34
2017-10-19T17:13:19.307Z,95292.83
2017-10-19T17:15:48.371Z,95296.55
2017-10-19T17:18:17.440Z,95290.59
2017-10-19T17:20:46.484Z,95289.88
2017-10-19T17:23:15.545Z,95293.84
2017-10-19T17:25:44.618Z,95295.22
2017-10-19T17:28:13.668Z,95299.53
2017-10-19T17:30:42.712Z,95302.69
2017-10-19T17:33:11.787Z,95305.77
2017-10-19T17:35:43.590Z,95308.94
2017-10-19T17:38:12.663Z,95314.80
2017-10-19T17:40:41.719Z,95316.16
2017-10-19T17:43:10.763Z,95314.33
2017-10-19T17:45:39.820Z,95312.70
2017-10-19T17:48:08.898Z,95312.72
2017-10-19T17:50:37.935Z,95314.36
2017-10-19T17:53:06.989Z,95313.70
2017-10-19T17:55:36.133Z,95317.56
2017-10-19T17:58:05.196Z,95322.15
2017-10-19T18:00:34.294Z,95325.14
2017-10-19T18:03:03.327Z,95322.66
2017-10-19T18:05:32.575Z,95323.47
2017-10-19T18:08:01.631Z,95321.08
2017-10-19T18:10:30.679Z,95318.36
2017-10-19T18:12:59.827Z,95318.36
2017-10-19T18:15:28.924Z,95319.48
2017-10-19T18:17:57.985Z,95317.95
2017-10-19T18:20:27.961Z,95315.41
2017-10-19T18:22:57.051Z,95316.95
2017-10-19T18:25:26.124Z,95315.32
2017-10-19T18:27:55.166Z,95314.73
2017-10-19T18:30:24.241Z,95315.87
2017-10-19T18:32:53.267Z,95315.48
2017-10-19T18:35:23.183Z,95323.01
2017-10-19T18:37:57.350Z,95316.69
2017-10-19T18:40:26.747Z,95314.27
2017-10-19T18:42:55.789Z,95313.77
2017-10-19T18:45:24.870Z,95313.13
2017-10-19T18:47:53.930Z,95316.30
2017-10-19T18:50:23.023Z,95309.72
2017-10-19T18:52:52.054Z,95308.83
2017-10-19T18:55:22.936Z,95308.91
2017-10-19T18:57:51.999Z,95310.48
2017-10-19T19:00:21.233Z,95307.31
2017-10-19T19:02:50.465Z,95308.81
2017-10-19T19:05:19.484Z,95306.89
2017-10-19T19:07:48.538Z,95308.63
2017-10-19T19:10:17.588Z,95305.81
2017-10-19T19:12:47.662Z,95303.78
2017-10-19T19:15:16.865Z,95306.19
2017-10-19T19:17:45.923Z,95310.50
2017-10-19T19:20:15.123Z,95309.85
2017-10-19T19:22:44.167Z,95309.37
2017-10-19T19:25:13.316Z,95311.63
2017-10-19T19:30:23.544Z,95313.22
2017-10-19T19:32:52.651Z,95312.32
2017-10-19T19:35:22.238Z,95316.83
2017-10-19T19:37:51.322Z,95316.93
2017-10-19T19:40:20.439Z,95320.42
2017-10-19T19:42:49.495Z,95318.27
2017-10-19T19:45:18.534Z,95321.30
2017-10-19T19:47:47.586Z,95322.61
2017-10-19T19:50:16.665Z,95324.37
2017-10-19T19:52:46.651Z,95323.95
2017-10-19T19:55:15.692Z,95325.66
2017-10-19T19:57:44.794Z,95323.41
2017-10-19T20:00:13.888Z,95327.83
2017-10-19T20:02:42.959Z,95329.23
2017-10-19T20:05:12.036Z,95323.81
2017-10-19T20:07:41.101Z,95320.84
2017-10-19T20:10:10.126Z,95316.70
2017-10-19T20:12:41.207Z,95311.28
2017-10-19T20:15:11.204Z,95314.69
2017-10-19T20:17:40.297Z,95315.30
2017-10-19T20:20:09.327Z,95319.52
2017-10-19T20:22:38.366Z,95317.41
2017-10-19T20:25:07.433Z,95319.16
2017-10-19T20:27:37.797Z,95318.54
2017-10-19T20:30:16.066Z,95319.11
2017-10-19T20:32:45.120Z,95319.70
2017-10-19T20:35:14.127Z,95318.90
2017-10-19T20:37:43.170Z,95314.03
2017-10-19T20:40:12.214Z,95314.70
2017-10-19T20:42:41.244Z,95311.62
2017-10-19T20:45:10.298Z,95309.10
2017-10-19T20:47:39.347Z,95311.39
2017-10-19T20:50:08.390Z,95307.99
2017-10-19T20:52:37.434Z,95310.33
2017-10-19T20:55:06.527Z,95316.96
2017-10-19T20:57:35.635Z,95316.42
2017-10-19T21:00:04.655Z,95311.35
2017-10-19T21:02:33.689Z,95313.36
2017-10-19T21:05:02.783Z,95308.06
2017-10-19T21:07:31.826Z,95310.97
2017-10-19T21:10:00.855Z,95310.48
2017-10-19T21:12:29.890Z,95313.53
2017-10-19T21:15:00.844Z,95310.97
2017-10-19T21:17:29.874Z,95306.87
2017-10-19T21:19:58.929Z,95307.91
2017-10-19T21:22:34.129Z,95305.78
2017-10-19T21:25:03.437Z,95303.17
2017-10-19T21:27:32.704Z,95300.64
2017-10-19T21:30:01.745Z,95305.87
2017-10-19T21:32:30.779Z,95308.44
2017-10-19T21:34:59.831Z,95308.47
2017-10-19T21:37:28.867Z,95306.36
2017-10-19T21:39:57.912Z,95305.05
2017-10-19T21:42:26.942Z,95301.67
2017-10-19T21:44:55.995Z,95299.61
2017-10-19T21:47:25.048Z,95304.23
2017-10-19T21:49:54.068Z,95302.02
2017-10-19T21:52:23.096Z,95301.22
2017-10-19T21:54:52.115Z,95301.23
2017-10-19T21:57:21.155Z,95300.90
2017-10-19T21:59:50.188Z,95297.22
2017-10-19T22:02:19.218Z,95289.35
2017-10-19T22:04:48.283Z,95288.73
2017-10-19T22:07:18.305Z,95290.43
2017-10-19T22:09:47.338Z,95286.70
2017-10-19T22:12:16.397Z,95286.07
2017-10-19T22:14:45.444Z,95285.32
2017-10-19T22:17:14.477Z,95281.80
2017-10-19T22:19:43.509Z,95280.64
2017-10-19T22:22:12.542Z,95276.45
2017-10-19T22:24:41.626Z,95273.51
2017-10-19T22:27:10.664Z,95271.04
2017-10-19T22:29:39.711Z,95269.47
2017-10-19T22:32:09.651Z,95276.95
2017-10-19T22:34:52.066Z,95268.09
2017-10-19T22:37:21.327Z,95271.02
2017-10-19T22:39:50.365Z,95265.58
2017-10-19T22:42:19.405Z,95264.40
2017-10-19T22:44:48.455Z,95265.39
2017-10-19T22:47:17.515Z,95266.22
2017-10-19T22:49:46.568Z,95270.19
2017-10-19T22:52:15.614Z,95271.78
2017-10-19T22:54:44.686Z,95269.14
2017-10-19T22:57:14.728Z,95262.89
2017-10-19T22:59:43.774Z,95264.70
2017-10-19T23:02:12.816Z,95258.92
2017-10-19T23:04:41.857Z,95260.41
2017-10-19T23:07:10.898Z,95257.04
2017-10-19T23:09:39.970Z,95259.03
2017-10-19T23:12:09.944Z,95255.12
2017-10-19T23:14:38.978Z,95257.19
2017-10-19T23:17:08.030Z,95254.39
2017-10-19T23:19:37.080Z,95251.13
2017-10-19T23:22:07.054Z,95253.67
2017-10-19T23:24:36.086Z,95250.33
2017-10-19T23:27:05.151Z,95245.53
2017-10-19T23:29:34.203Z,95243.27
2017-10-19T23:32:03.243Z,95242.91
2017-10-19T23:34:32.290Z,95238.02
2017-10-19T23:37:01.339Z,95240.80
2017-10-19T23:39:30.366Z,95240.47
2017-10-19T23:41:59.397Z,95240.20
2017-10-19T23:44:28.440Z,95245.99
2017-10-19T23:46:57.480Z,95247.52
2017-10-19T23:49:26.528Z,95248.81
2017-10-19T23:51:55.579Z,95243.30
2017-10-19T23:54:24.627Z,95248.06
2017-10-19T23:56:53.684Z,95246.58
2017-10-19T23:59:22.728Z,95245.95
